Time;durP1;ratioP1;P1;durP2;ratioP2;P2;SDS_P1;SDS_P2;PMS_P1;PMS_P2;Temp;Humidity;BMP_temperature;BMP_pressure;BME280_temperature;BME280_humidity;BME280_pressure;Samples;Min_cycle;Max_cycle;Signal;HPM_P1;HPM_P2
2024/01/21 00:00:12;;;;;;;;;;;;;;;21.99;25.70;102344.56;5043058;28;19937;-74
2024/01/21 00:02:38;;;;;;;;;;;;;;;21.94;25.47;102336.91;5043746;28;19918;-74
2024/01/21 00:05:03;;;;;;;;;;;;;;;21.92;25.45;102325.38;5043168;28;19920;-74
2024/01/21 00:07:28;;;;;;;;;;;;;;;21.92;25.39;102324.53;5042630;28;19933;-73
2024/01/21 00:09:53;;;;;;;;;;;;;;;21.89;25.61;102327.53;5031311;28;19917;-74
2024/01/21 00:12:19;;;;;;;;;;;;;;;21.86;25.41;102331.41;5033748;28;19948;-74
2024/01/21 00:14:44;;;;;;;;;;;;;;;21.83;25.80;102333.56;5043979;28;20061;-74
2024/01/21 00:17:09;;;;;;;;;;;;;;;21.79;25.58;102327.63;5045755;28;19917;-73
2024/01/21 00:19:36;;;;;;;;;;;;;;;21.77;25.75;102321.50;5044018;28;20274;-74
2024/01/21 00:22:02;;;;;;;;;;;;;;;21.74;25.83;102324.50;5037366;28;19921;-74
2024/01/21 00:24:27;;;;;;;;;;;;;;;21.71;25.89;102314.84;5036125;28;19956;-73
2024/01/21 00:26:52;;;;;;;;;;;;;;;21.69;25.79;102305.16;5042567;28;20559;-73
2024/01/21 00:29:18;;;;;;;;;;;;;;;21.64;25.86;102302.06;5042805;28;19913;-74
2024/01/21 00:31:44;;;;;;;;;;;;;;;21.62;25.91;102299.53;5048189;28;19975;-75
2024/01/21 00:34:09;;;;;;;;;;;;;;;21.60;25.87;102295.25;5039648;28;19912;-74
2024/01/21 00:36:34;;;;;;;;;;;;;;;21.57;25.98;102290.16;5036253;28;20008;-74
2024/01/21 00:38:59;;;;;;;;;;;;;;;21.54;25.76;102296.72;5038293;28;19913;-74
2024/01/21 00:41:24;;;;;;;;;;;;;;;21.52;26.02;102296.00;5043486;28;20413;-73
2024/01/21 00:43:49;;;;;;;;;;;;;;;21.48;25.90;102283.78;5042933;28;19927;-74
2024/01/21 00:46:15;;;;;;;;;;;;;;;21.44;25.93;102280.53;5033547;28;19949;-74
2024/01/21 00:48:41;;;;;;;;;;;;;;;21.43;26.09;102273.44;5039571;28;19923;-73
2024/01/21 00:51:06;;;;;;;;;;;;;;;21.41;26.09;102280.00;5044577;28;19913;-72
2024/01/21 00:53:31;;;;;;;;;;;;;;;21.39;26.15;102284.72;5042054;28;19932;-73
2024/01/21 00:55:56;;;;;;;;;;;;;;;21.36;25.92;102276.88;5044541;28;20389;-74
2024/01/21 00:58:22;;;;;;;;;;;;;;;21.34;26.19;102276.19;5035100;28;19921;-73
2024/01/21 01:00:47;;;;;;;;;;;;;;;21.31;25.92;102271.06;5036364;28;19912;-73
2024/01/21 01:03:12;;;;;;;;;;;;;;;21.29;25.99;102264.97;5039290;28;19913;-73
2024/01/21 01:05:37;;;;;;;;;;;;;;;21.26;26.06;102265.25;5037190;28;19916;-73
2024/01/21 01:08:02;;;;;;;;;;;;;;;21.24;26.03;102257.31;5042361;28;19925;-73
2024/01/21 01:10:28;;;;;;;;;;;;;;;21.23;26.03;102263.69;5039043;28;20436;-73
2024/01/21 01:12:53;;;;;;;;;;;;;;;21.19;26.18;102259.59;5047858;28;19921;-73
2024/01/21 01:15:18;;;;;;;;;;;;;;;21.17;26.12;102256.19;5038376;28;19936;-74
2024/01/21 01:17:44;;;;;;;;;;;;;;;21.16;25.97;102254.50;5042689;28;19921;-74
2024/01/21 01:20:09;;;;;;;;;;;;;;;21.15;26.32;102252.78;5042409;28;19912;-74
2024/01/21 01:22:35;;;;;;;;;;;;;;;21.13;26.24;102243.97;5038745;28;19914;-74
2024/01/21 01:25:00;;;;;;;;;;;;;;;21.10;26.36;102242.41;5043218;28;19913;-74
2024/01/21 01:27:26;;;;;;;;;;;;;;;21.11;26.17;102240.56;5042574;28;19924;-74
2024/01/21 01:29:51;;;;;;;;;;;;;;;21.08;26.33;102241.72;5040404;28;19918;-73
2024/01/21 01:32:16;;;;;;;;;;;;;;;21.07;26.26;102242.72;5038298;28;19928;-73
2024/01/21 01:34:41;;;;;;;;;;;;;;;21.05;26.10;102236.59;5031116;28;19920;-73
2024/01/21 01:37:09;;;;;;;;;;;;;;;21.03;26.36;102229.66;5038547;28;19995;-74
2024/01/21 01:39:34;;;;;;;;;;;;;;;21.03;26.51;102224.25;5040740;28;19917;-73
2024/01/21 01:41:59;;;;;;;;;;;;;;;21.02;26.18;102223.38;5039866;28;20622;-73
2024/01/21 01:44:24;;;;;;;;;;;;;;;20.99;25.93;102218.28;5041528;28;19978;-73
2024/01/21 01:46:50;;;;;;;;;;;;;;;20.99;25.99;102212.03;5038032;28;19917;-73
2024/01/21 01:49:15;;;;;;;;;;;;;;;20.96;26.00;102195.09;5037035;28;19983;-73
2024/01/21 01:51:40;;;;;;;;;;;;;;;20.95;25.97;102195.25;5033490;28;19917;-73
2024/01/21 01:54:05;;;;;;;;;;;;;;;20.94;26.03;102191.72;5042705;28;19913;-73
2024/01/21 01:56:30;;;;;;;;;;;;;;;20.93;25.91;102195.41;5037527;28;19977;-73
2024/01/21 01:58:56;;;;;;;;;;;;;;;20.91;25.99;102183.91;5031812;28;19947;-73
2024/01/21 02:01:21;;;;;;;;;;;;;;;20.91;26.24;102172.22;5042127;28;19960;-73
2024/01/21 02:03:46;;;;;;;;;;;;;;;20.89;26.02;102150.75;5041610;28;19973;-74
2024/01/21 02:06:11;;;;;;;;;;;;;;;20.88;26.02;102143.63;5039673;28;19917;-73
2024/01/21 02:08:36;;;;;;;;;;;;;;;20.87;25.96;102133.84;5038596;28;19943;-73
2024/01/21 02:11:02;;;;;;;;;;;;;;;20.86;26.19;102137.53;5040905;28;19913;-74
2024/01/21 02:13:28;;;;;;;;;;;;;;;20.86;26.00;102137.53;5036932;28;19923;-73
2024/01/21 02:15:53;;;;;;;;;;;;;;;20.86;26.01;102134.00;5030773;28;19917;-74
2024/01/21 02:18:18;;;;;;;;;;;;;;;20.85;25.96;102124.16;5036338;28;19913;-73
2024/01/21 02:20:44;;;;;;;;;;;;;;;20.85;25.98;102119.59;5037470;28;19914;-73
2024/01/21 02:23:10;;;;;;;;;;;;;;;20.85;25.98;102118.75;5042554;28;19913;-71
2024/01/21 02:25:35;;;;;;;;;;;;;;;20.84;26.02;102120.59;5037659;28;19959;-73
2024/01/21 02:28:01;;;;;;;;;;;;;;;20.83;25.92;102108.09;5040883;28;19920;-73
2024/01/21 02:30:26;;;;;;;;;;;;;;;20.85;26.17;102107.94;5040740;28;19948;-73
2024/01/21 02:32:51;;;;;;;;;;;;;;;20.83;25.95;102097.28;5040114;28;19921;-74
2024/01/21 02:35:16;;;;;;;;;;;;;;;20.84;25.84;102090.03;5041196;28;19917;-73
2024/01/21 02:37:41;;;;;;;;;;;;;;;20.84;26.19;102087.31;5053378;28;19967;-73
2024/01/21 02:40:07;;;;;;;;;;;;;;;20.83;25.78;102081.06;5042046;28;20353;-73
2024/01/21 02:42:32;;;;;;;;;;;;;;;20.83;25.85;102064.84;5034011;28;20529;-73
2024/01/21 02:44:57;;;;;;;;;;;;;;;20.83;25.85;102070.25;5033082;28;19953;-73
2024/01/21 02:47:24;;;;;;;;;;;;;;;20.84;25.75;102058.44;5040070;28;19927;-73
2024/01/21 02:49:49;;;;;;;;;;;;;;;20.85;25.89;102056.59;5036010;28;19928;-73
2024/01/21 02:52:14;;;;;;;;;;;;;;;20.85;25.79;102051.19;5036546;28;19922;-73
2024/01/21 02:54:39;;;;;;;;;;;;;;;20.86;25.80;102052.91;5040392;28;19913;-73
2024/01/21 02:57:05;;;;;;;;;;;;;;;20.85;25.76;102052.03;5040570;28;19913;-72
2024/01/21 02:59:30;;;;;;;;;;;;;;;20.87;25.70;102039.22;5045678;28;19917;-72
2024/01/21 03:01:57;;;;;;;;;;;;;;;20.87;25.72;102028.41;5045071;28;19952;-73
2024/01/21 03:04:22;;;;;;;;;;;;;;;20.87;25.59;102012.19;5044915;28;19920;-73
2024/01/21 03:06:47;;;;;;;;;;;;;;;20.87;25.83;102009.47;5042415;28;19917;-73
2024/01/21 03:09:12;;;;;;;;;;;;;;;20.88;25.65;102008.47;5040450;28;19929;-73
2024/01/21 03:11:40;;;;;;;;;;;;;;;20.87;25.65;102009.47;5042152;28;20401;-73
2024/01/21 03:14:07;;;;;;;;;;;;;;;20.89;25.84;102014.72;5043797;28;20005;-73
2024/01/21 03:16:32;;;;;;;;;;;;;;;20.88;25.64;101989.53;5040294;28;19918;-73
2024/01/21 03:18:57;;;;;;;;;;;;;;;20.90;25.39;101978.59;5045124;28;19913;-73
2024/01/21 03:21:22;;;;;;;;;;;;;;;20.90;25.45;101968.63;5047325;28;19923;-73
2024/01/21 03:23:47;;;;;;;;;;;;;;;20.91;25.39;101973.03;5045774;28;19920;-72
2024/01/21 03:26:13;;;;;;;;;;;;;;;20.92;25.64;101966.59;5045886;28;20359;-74
2024/01/21 03:28:38;;;;;;;;;;;;;;;20.94;25.58;101961.03;5044071;28;20385;-73
2024/01/21 03:31:03;;;;;;;;;;;;;;;20.94;25.73;101963.72;5041312;28;19920;-73
2024/01/21 03:33:29;;;;;;;;;;;;;;;20.94;25.38;101961.03;5042161;28;19956;-73
2024/01/21 03:35:54;;;;;;;;;;;;;;;20.95;25.40;101960.91;5044422;28;19913;-73
2024/01/21 03:38:19;;;;;;;;;;;;;;;20.96;25.49;101970.69;5043539;28;19912;-73
2024/01/21 03:40:44;;;;;;;;;;;;;;;20.98;25.39;101959.72;5041022;28;19940;-73
2024/01/21 03:43:10;;;;;;;;;;;;;;;20.99;25.45;101956.03;5038450;28;19952;-73
2024/01/21 03:45:35;;;;;;;;;;;;;;;21.02;25.55;101954.84;5037285;28;19917;-73
2024/01/21 03:48:00;;;;;;;;;;;;;;;21.03;25.37;101948.44;5043937;28;19917;-73
2024/01/21 03:50:25;;;;;;;;;;;;;;;21.05;25.47;101949.13;5050582;28;20367;-73
2024/01/21 03:52:50;;;;;;;;;;;;;;;21.05;25.36;101927.50;5045644;28;19952;-73
2024/01/21 03:55:16;;;;;;;;;;;;;;;21.06;25.28;101916.50;5038160;28;19917;-73
2024/01/21 03:57:41;;;;;;;;;;;;;;;21.09;25.28;101918.06;5040632;28;19925;-73
2024/01/21 04:00:08;;;;;;;;;;;;;;;21.09;25.26;101916.22;5038435;28;20329;-73
2024/01/21 04:02:34;;;;;;;;;;;;;;;21.11;25.56;101910.63;5042918;28;19917;-73
2024/01/21 04:04:59;;;;;;;;;;;;;;;21.12;25.31;101918.59;5038771;28;19925;-73
2024/01/21 04:07:24;;;;;;;;;;;;;;;21.13;25.31;101916.75;5045911;28;19921;-72
2024/01/21 04:09:49;;;;;;;;;;;;;;;21.14;25.08;101919.28;5042681;28;19981;-73
2024/01/21 04:12:15;;;;;;;;;;;;;;;21.16;25.08;101911.88;5041867;28;20290;-73
2024/01/21 04:14:40;;;;;;;;;;;;;;;21.17;25.31;101908.16;5040359;28;19917;-73
2024/01/21 04:17:05;;;;;;;;;;;;;;;21.19;25.04;101916.09;5038695;28;19975;-74
2024/01/21 04:19:30;;;;;;;;;;;;;;;21.20;25.07;101924.06;5036810;28;19917;-73
2024/01/21 04:21:56;;;;;;;;;;;;;;;21.21;25.13;101933.88;5033774;28;19917;-73
2024/01/21 04:24:21;;;;;;;;;;;;;;;21.21;24.99;101919.50;5037674;28;19917;-73
2024/01/21 04:26:46;;;;;;;;;;;;;;;21.23;25.04;101917.47;5042272;28;20009;-73
2024/01/21 04:29:12;;;;;;;;;;;;;;;21.25;24.89;101911.91;5037025;28;19917;-73
2024/01/21 04:31:37;;;;;;;;;;;;;;;21.25;24.94;101907.34;5043881;28;19913;-73
2024/01/21 04:34:02;;;;;;;;;;;;;;;21.26;25.12;101895.53;5047338;28;19947;-73
2024/01/21 04:36:27;;;;;;;;;;;;;;;21.28;24.93;101881.81;5042402;28;19913;-73
2024/01/21 04:38:53;;;;;;;;;;;;;;;21.28;25.00;101876.41;5042637;28;19952;-73
2024/01/21 04:41:18;;;;;;;;;;;;;;;21.30;25.08;101874.41;5038564;28;19940;-72
2024/01/21 04:43:46;;;;;;;;;;;;;;;21.30;24.87;101866.31;5044302;28;20025;-73
2024/01/21 04:46:12;;;;;;;;;;;;;;;21.31;24.83;101859.88;5041529;28;19992;-73
2024/01/21 04:48:37;;;;;;;;;;;;;;;21.32;24.98;101853.47;5038430;28;19917;-73
2024/01/21 04:51:02;;;;;;;;;;;;;;;21.33;25.00;101849.78;5036689;28;20392;-73
2024/01/21 04:53:28;;;;;;;;;;;;;;;21.35;24.83;101842.34;5035141;28;19917;-73
2024/01/21 04:55:53;;;;;;;;;;;;;;;21.35;25.10;101847.75;5041023;28;20393;-73
2024/01/21 04:58:18;;;;;;;;;;;;;;;21.35;24.92;101848.59;5039592;28;19981;-73
2024/01/21 05:00:43;;;;;;;;;;;;;;;21.36;24.99;101842.16;5048267;28;19921;-74
2024/01/21 05:03:09;;;;;;;;;;;;;;;21.35;25.00;101836.94;5044700;28;19913;-73
2024/01/21 05:05:34;;;;;;;;;;;;;;;21.36;24.96;101819.69;5037926;28;19940;-73
2024/01/21 05:07:59;;;;;;;;;;;;;;;21.36;24.66;101815.13;5043055;28;19925;-73
2024/01/21 05:10:24;;;;;;;;;;;;;;;21.36;24.91;101804.28;5039077;28;19917;-73
2024/01/21 05:12:50;;;;;;;;;;;;;;;21.36;24.90;101815.13;5035585;28;19921;-73
2024/01/21 05:15:15;;;;;;;;;;;;;;;21.37;24.58;101814.13;5040288;28;19920;-73
2024/01/21 05:17:40;;;;;;;;;;;;;;;21.38;24.81;101820.38;5036372;28;19967;-77
2024/01/21 05:20:08;;;;;;;;;;;;;;;21.38;24.78;101805.00;5041885;28;19914;-73
2024/01/21 05:22:33;;;;;;;;;;;;;;;21.39;24.89;101797.72;5041601;28;19919;-72
2024/01/21 05:24:58;;;;;;;;;;;;;;;21.40;24.51;101785.88;5035672;28;19913;-74
2024/01/21 05:27:23;;;;;;;;;;;;;;;21.39;24.74;101803.97;5040036;28;19913;-73
2024/01/21 05:29:49;;;;;;;;;;;;;;;21.40;24.88;101807.53;5039585;28;19917;-73
2024/01/21 05:32:14;;;;;;;;;;;;;;;21.38;24.57;101799.59;5041739;28;19922;-72
2024/01/21 05:34:39;;;;;;;;;;;;;;;21.41;24.71;101825.47;5040368;28;19956;-73
2024/01/21 05:37:04;;;;;;;;;;;;;;;21.41;24.64;101815.50;5037603;28;19963;-73
2024/01/21 05:39:30;;;;;;;;;;;;;;;21.42;24.68;101809.06;5040833;28;19927;-73
2024/01/21 05:42:05;;;;;;;;;;;;;;;21.42;24.83;101792.84;5039262;28;19959;-73
2024/01/21 05:44:31;;;;;;;;;;;;;;;21.44;24.70;101776.44;5042203;28;19982;-72
2024/01/21 05:46:56;;;;;;;;;;;;;;;21.44;24.87;101754.78;5039487;28;20379;-73
2024/01/21 05:49:21;;;;;;;;;;;;;;;21.44;24.88;101776.44;5039039;28;19917;-74
2024/01/21 05:51:47;;;;;;;;;;;;;;;21.45;24.96;101779.00;5036802;28;19940;-73
2024/01/21 05:54:12;;;;;;;;;;;;;;;21.46;24.73;101769.84;5040137;28;19980;-73
2024/01/21 05:56:37;;;;;;;;;;;;;;;21.48;25.02;101763.44;5055009;28;20012;-74
2024/01/21 05:59:02;;;;;;;;;;;;;;;21.48;24.92;101756.16;5052476;28;19936;-74
2024/01/21 06:01:27;;;;;;;;;;;;;;;21.48;24.74;101753.44;5034015;28;20401;-73
2024/01/21 06:03:53;;;;;;;;;;;;;;;21.49;25.17;101741.59;5029790;28;19937;-73
2024/01/21 06:06:18;;;;;;;;;;;;;;;21.52;25.20;101730.47;5039911;28;19920;-76
2024/01/21 06:08:43;;;;;;;;;;;;;;;21.53;25.20;101724.03;5035128;28;19988;-76
2024/01/21 06:11:08;;;;;;;;;;;;;;;21.55;24.73;101745.53;5037715;28;19949;-74
2024/01/21 06:13:34;;;;;;;;;;;;;;;21.56;24.94;101758.88;5042976;28;19925;-74
2024/01/21 06:16:01;;;;;;;;;;;;;;;21.57;25.07;101743.50;5041356;28;20417;-76
2024/01/21 06:18:26;;;;;;;;;;;;;;;21.58;24.93;101783.06;5045832;28;19970;-79
2024/01/21 06:20:51;;;;;;;;;;;;;;;21.59;24.97;101763.13;5041075;28;20028;-72
2024/01/21 06:23:16;;;;;;;;;;;;;;;21.60;24.95;101756.69;5038893;28;20027;-73
2024/01/21 06:25:41;;;;;;;;;;;;;;;21.61;25.07;101745.69;5035795;28;19932;-72
2024/01/21 06:28:07;;;;;;;;;;;;;;;21.62;24.81;101725.75;5033928;28;19917;-74
2024/01/21 06:30:32;;;;;;;;;;;;;;;21.64;24.76;101739.13;5037592;28;19913;-75
2024/01/21 06:32:57;;;;;;;;;;;;;;;21.64;25.20;101744.53;5040554;28;19921;-72
2024/01/21 06:35:22;;;;;;;;;;;;;;;21.66;24.87;101751.47;5039822;28;19945;-72
2024/01/21 06:37:48;;;;;;;;;;;;;;;21.68;25.06;101746.72;5037325;28;19921;-72
2024/01/21 06:40:13;;;;;;;;;;;;;;;21.70;25.04;101749.25;5043443;28;19924;-71
2024/01/21 06:42:38;;;;;;;;;;;;;;;21.72;25.10;101771.59;5042942;28;19941;-72
2024/01/21 06:45:03;;;;;;;;;;;;;;;21.73;25.16;101776.00;5040771;28;19920;-73
2024/01/21 06:47:29;;;;;;;;;;;;;;;21.74;24.97;101772.28;5034876;28;19920;-73
2024/01/21 06:49:54;;;;;;;;;;;;;;;21.77;25.00;101757.56;5031818;28;19917;-72
2024/01/21 06:52:19;;;;;;;;;;;;;;;21.76;25.08;101754.03;5037128;28;20019;-72
2024/01/21 06:54:44;;;;;;;;;;;;;;;21.78;24.78;101764.66;5040196;28;20273;-73
2024/01/21 06:57:09;;;;;;;;;;;;;;;21.80;24.64;101776.19;5038991;28;20501;-72
2024/01/21 06:59:35;;;;;;;;;;;;;;;21.81;24.93;101773.31;5040013;28;19969;-71
2024/01/21 07:02:00;;;;;;;;;;;;;;;21.83;24.95;101786.66;5032843;28;19924;-72
2024/01/21 07:04:25;;;;;;;;;;;;;;;21.84;24.94;101783.81;5032990;28;19913;-72
2024/01/21 07:06:52;;;;;;;;;;;;;;;21.86;24.81;101748.44;5042265;28;19924;-72
2024/01/21 07:09:17;;;;;;;;;;;;;;;21.86;24.63;101752.00;5045873;28;19981;-72
2024/01/21 07:11:42;;;;;;;;;;;;;;;21.89;25.04;101748.13;5040408;28;19924;-72
2024/01/21 07:14:08;;;;;;;;;;;;;;;21.88;24.68;101758.09;5040893;28;19981;-72
2024/01/21 07:16:33;;;;;;;;;;;;;;;21.90;24.64;101747.94;5036687;28;19913;-72
2024/01/21 07:18:58;;;;;;;;;;;;;;;21.91;24.61;101737.94;5036276;28;19923;-72
2024/01/21 07:21:23;;;;;;;;;;;;;;;21.91;24.69;101719.84;5039412;28;20436;-72
2024/01/21 07:23:48;;;;;;;;;;;;;;;21.92;24.75;101718.00;5037527;28;20598;-72
2024/01/21 07:26:14;;;;;;;;;;;;;;;21.91;24.78;101716.28;5039198;28;20480;-74
2024/01/21 07:28:39;;;;;;;;;;;;;;;21.92;24.97;101699.91;5042552;28;19961;-76
2024/01/21 07:31:04;;;;;;;;;;;;;;;21.91;24.67;101702.75;5039566;28;20363;-75
2024/01/21 07:33:29;;;;;;;;;;;;;;;21.88;24.83;101708.53;5033872;28;19939;-77
2024/01/21 07:35:54;;;;;;;;;;;;;;;21.86;25.12;101713.25;5034419;28;19914;-76
2024/01/21 07:38:20;;;;;;;;;;;;;;;21.84;25.11;101691.78;5033927;28;19913;-78
2024/01/21 07:40:45;;;;;;;;;;;;;;;21.84;25.18;101696.34;5033939;28;19936;-77
2024/01/21 07:43:12;;;;;;;;;;;;;;;21.83;24.88;101676.53;5035696;28;20188;-76
2024/01/21 07:45:37;;;;;;;;;;;;;;;21.83;24.87;101692.75;5037973;28;19960;-74
2024/01/21 07:48:03;;;;;;;;;;;;;;;21.84;24.90;101715.28;5036473;28;19924;-74
2024/01/21 07:50:28;;;;;;;;;;;;;;;21.84;24.92;101708.00;5042511;28;19977;-72
2024/01/21 07:52:53;;;;;;;;;;;;;;;21.83;25.04;101741.50;5043858;28;19918;-74
2024/01/21 07:55:18;;;;;;;;;;;;;;;21.84;25.20;101751.31;5040788;28;19921;-75
2024/01/21 07:57:43;;;;;;;;;;;;;;;21.85;24.84;101744.88;5040450;28;20278;-74
2024/01/21 08:00:09;;;;;;;;;;;;;;;21.87;24.95;101764.50;5037051;28;20412;-75
2024/01/21 08:02:34;;;;;;;;;;;;;;;21.89;24.90;101745.41;5040524;28;19913;-75
2024/01/21 08:04:59;;;;;;;;;;;;;;;21.87;24.81;101750.97;5054646;28;19923;-75
2024/01/21 08:07:26;;;;;;;;;;;;;;;21.90;24.85;101757.91;5039929;28;19926;-75
2024/01/21 08:09:52;;;;;;;;;;;;;;;21.91;24.94;101756.91;5038587;28;20072;-74
2024/01/21 08:12:17;;;;;;;;;;;;;;;21.90;24.76;101766.88;5034762;28;19943;-75
2024/01/21 08:14:42;;;;;;;;;;;;;;;21.93;25.05;101761.16;5039760;28;19949;-75
2024/01/21 08:17:08;;;;;;;;;;;;;;;21.96;24.96;101759.94;5034074;28;20377;-75
2024/01/21 08:19:37;;;;;;;;;;;;;;;21.98;24.83;101771.47;5046125;28;19964;-75
2024/01/21 08:22:02;;;;;;;;;;;;;;;22.01;24.72;101787.38;5042258;28;19924;-73
2024/01/21 08:24:27;;;;;;;;;;;;;;;22.00;24.63;101769.41;5042176;28;19998;-72
2024/01/21 08:26:53;;;;;;;;;;;;;;;22.03;24.94;101771.81;5044091;28;19917;-71
2024/01/21 08:29:18;;;;;;;;;;;;;;;22.04;24.84;101772.66;5041578;28;19984;-75
2024/01/21 08:31:44;;;;;;;;;;;;;;;22.04;24.83;101770.78;5039090;28;19918;-72
2024/01/21 08:34:09;;;;;;;;;;;;;;;22.05;24.70;101771.66;5038338;28;19973;-75
2024/01/21 08:36:34;;;;;;;;;;;;;;;22.05;24.70;101763.53;5038997;28;20630;-73
2024/01/21 08:38:59;;;;;;;;;;;;;;;22.08;24.57;101779.41;5041165;28;20454;-74
2024/01/21 08:41:24;;;;;;;;;;;;;;;22.11;24.69;101758.28;5042262;28;19917;-72
2024/01/21 08:43:50;;;;;;;;;;;;;;;22.12;24.51;101765.41;5036511;28;19917;-73
2024/01/21 08:46:15;;;;;;;;;;;;;;;22.13;24.62;101756.28;5037540;28;19917;-74
2024/01/21 08:48:41;;;;;;;;;;;;;;;22.15;24.51;101758.81;5040121;28;19917;-75
2024/01/21 08:51:07;;;;;;;;;;;;;;;22.15;24.68;101746.13;5042805;28;19936;-75
2024/01/21 08:53:32;;;;;;;;;;;;;;;22.17;24.68;101760.34;5040684;28;20287;-74
2024/01/21 08:55:57;;;;;;;;;;;;;;;22.17;24.48;101744.09;5038934;28;19914;-74
2024/01/21 08:58:22;;;;;;;;;;;;;;;22.23;24.54;101761.53;5040346;28;19921;-74
2024/01/21 09:00:47;;;;;;;;;;;;;;;22.25;24.71;101767.59;5038421;28;19952;-74
2024/01/21 09:03:14;;;;;;;;;;;;;;;22.26;24.65;101766.59;5040531;28;20007;-74
2024/01/21 09:05:40;;;;;;;;;;;;;;;22.29;24.56;101768.13;5039819;28;19913;-74
2024/01/21 09:08:05;;;;;;;;;;;;;;;22.33;24.19;101781.16;5038689;28;19921;-75
2024/01/21 09:10:30;;;;;;;;;;;;;;;22.32;24.36;101781.31;5033453;28;19924;-76
2024/01/21 09:12:55;;;;;;;;;;;;;;;22.35;24.49;101781.84;5043002;28;19967;-75
2024/01/21 09:15:22;;;;;;;;;;;;;;;22.35;24.36;101789.13;5046154;28;20385;-74
2024/01/21 09:17:48;;;;;;;;;;;;;;;22.37;24.25;101768.09;5048189;28;19917;-76
2024/01/21 09:20:13;;;;;;;;;;;;;;;22.35;24.44;101776.41;5044582;28;19923;-74
2024/01/21 09:22:38;;;;;;;;;;;;;;;22.35;24.53;101757.44;5027877;28;19921;-74
2024/01/21 09:25:04;;;;;;;;;;;;;;;22.40;24.44;101775.91;5041350;28;19913;-74
2024/01/21 09:27:29;;;;;;;;;;;;;;;22.40;24.42;101782.16;5037748;28;20441;-74
2024/01/21 09:29:54;;;;;;;;;;;;;;;22.42;24.15;101799.09;5037268;28;19968;-74
2024/01/21 09:32:19;;;;;;;;;;;;;;;22.44;24.40;101790.81;5039527;28;19980;-74
2024/01/21 09:34:45;;;;;;;;;;;;;;;22.44;24.45;101796.22;5041047;28;19927;-74
2024/01/21 09:37:10;;;;;;;;;;;;;;;22.49;24.51;101809.25;5044315;28;19919;-74
2024/01/21 09:39:37;;;;;;;;;;;;;;;22.46;24.38;101797.72;5040641;28;19923;-75
2024/01/21 09:42:02;;;;;;;;;;;;;;;22.48;24.10;101802.16;5039221;28;19921;-74
2024/01/21 09:44:28;;;;;;;;;;;;;;;22.49;24.35;101811.97;5036001;28;19917;-74
2024/01/21 09:46:54;;;;;;;;;;;;;;;22.51;24.22;101802.63;5032175;28;19996;-73
2024/01/21 09:49:20;;;;;;;;;;;;;;;22.55;24.26;101805.84;5036999;28;19944;-74
2024/01/21 09:51:46;;;;;;;;;;;;;;;22.58;23.90;101811.78;5036918;28;19917;-74
2024/01/21 09:54:11;;;;;;;;;;;;;;;22.57;23.87;101820.09;5036111;28;20641;-74
2024/01/21 09:56:36;;;;;;;;;;;;;;;22.60;24.26;101808.88;5031749;28;19913;-74
2024/01/21 09:59:01;;;;;;;;;;;;;;;22.60;23.99;101809.75;5034807;28;19913;-74
2024/01/21 10:01:26;;;;;;;;;;;;;;;22.59;24.07;101809.91;5039442;28;19916;-73
2024/01/21 10:03:52;;;;;;;;;;;;;;;22.60;24.17;101809.75;5038266;28;19969;-73
2024/01/21 10:06:17;;;;;;;;;;;;;;;22.63;24.00;101800.44;5039242;28;19917;-73
2024/01/21 10:08:43;;;;;;;;;;;;;;;22.65;24.25;101803.81;5031440;28;19921;-74
2024/01/21 10:11:08;;;;;;;;;;;;;;;22.64;24.25;101813.81;5035814;28;19921;-72
2024/01/21 10:13:36;;;;;;;;;;;;;;;22.68;24.05;101820.59;5038699;28;19917;-74
2024/01/21 10:16:02;;;;;;;;;;;;;;;22.69;23.78;101818.72;5038757;28;19917;-73
2024/01/21 10:18:28;;;;;;;;;;;;;;;22.71;23.96;101819.38;5036877;28;19971;-72
2024/01/21 10:20:53;;;;;;;;;;;;;;;22.74;23.91;101810.09;5032348;28;19917;-72
2024/01/21 10:23:18;;;;;;;;;;;;;;;22.71;24.25;101809.38;5038803;28;19919;-76
2024/01/21 10:25:44;;;;;;;;;;;;;;;22.72;24.28;101821.06;5034988;28;19917;-72
2024/01/21 10:28:12;;;;;;;;;;;;;;;22.72;24.26;101810.22;5041888;28;20332;-72
2024/01/21 10:30:38;;;;;;;;;;;;;;;22.71;24.23;101827.53;5039071;28;19920;-72
2024/01/21 10:33:03;;;;;;;;;;;;;;;22.70;24.38;101799.56;5040475;28;19921;-72
2024/01/21 10:35:28;;;;;;;;;;;;;;;22.24;24.18;101737.97;5040144;28;19956;-72
2024/01/21 10:37:54;;;;;;;;;;;;;;;22.73;24.33;101802.97;5035395;28;19977;-72
2024/01/21 10:40:19;;;;;;;;;;;;;;;22.72;24.11;101796.69;5030142;28;19920;-71
2024/01/21 10:42:44;;;;;;;;;;;;;;;22.73;24.29;101789.41;5020973;28;19924;-73
2024/01/21 10:45:09;;;;;;;;;;;;;;;22.75;24.28;101785.50;5035724;28;19928;-72
2024/01/21 10:47:34;;;;;;;;;;;;;;;22.76;24.38;101772.78;5042772;28;20429;-74
2024/01/21 10:50:00;;;;;;;;;;;;;;;22.79;24.44;101764.31;5040925;28;19921;-73
2024/01/21 10:52:26;;;;;;;;;;;;;;;22.80;24.37;101772.25;5038867;28;19921;-73
2024/01/21 10:54:51;;;;;;;;;;;;;;;22.81;24.25;101778.53;5037437;28;19917;-73
2024/01/21 10:57:17;;;;;;;;;;;;;;;22.81;24.29;101782.09;5032332;28;19944;-77
2024/01/21 10:59:43;;;;;;;;;;;;;;;22.82;24.51;101788.38;5040062;28;19927;-73
2024/01/21 11:02:09;;;;;;;;;;;;;;;22.86;24.15;101776.16;5040582;28;20033;-75
2024/01/21 11:04:34;;;;;;;;;;;;;;;22.84;24.44;101778.19;5038730;28;19986;-77
2024/01/21 11:07:00;;;;;;;;;;;;;;;22.86;24.40;101774.28;5035179;28;19921;-75
2024/01/21 11:09:28;;;;;;;;;;;;;;;22.84;24.64;101780.91;5037692;28;19917;-76
2024/01/21 11:11:54;;;;;;;;;;;;;;;22.83;24.52;101777.34;5037022;28;19917;-77
2024/01/21 11:14:32;;;;;;;;;;;;;;;22.84;24.72;101784.44;5037467;28;19988;-75
2024/01/21 11:16:58;;;;;;;;;;;;;;;22.85;24.53;101779.88;5032437;28;19913;-77
2024/01/21 11:19:24;;;;;;;;;;;;;;;22.88;24.77;101768.69;5036922;28;19924;-76
2024/01/21 11:21:50;;;;;;;;;;;;;;;22.89;24.74;101767.66;5040813;28;19918;-76
2024/01/21 11:24:15;;;;;;;;;;;;;;;22.90;24.92;101750.44;5044036;28;20246;-74
2024/01/21 11:26:42;;;;;;;;;;;;;;;22.90;24.68;101748.56;5046367;28;19913;-74
2024/01/21 11:29:24;;;;;;;;;;;;;;;22.93;24.69;101752.75;5038893;28;19944;-76
2024/01/21 11:31:49;;;;;;;;;;;;;;;22.93;24.85;101756.31;5036457;28;19913;-77
2024/01/21 11:34:16;;;;;;;;;;;;;;;22.94;24.65;101768.88;5026420;28;19928;-78
2024/01/21 11:36:42;;;;;;;;;;;;;;;22.94;24.73;101762.63;5039872;28;19918;-79
2024/01/21 11:39:07;;;;;;;;;;;;;;;22.94;24.83;101768.88;5044614;28;19913;-79
2024/01/21 11:41:37;;;;;;;;;;;;;;;22.97;24.75;101766.81;5042007;28;19971;-76
2024/01/21 11:44:09;;;;;;;;;;;;;;;22.99;24.64;101773.78;5043324;28;19927;-75
2024/01/21 11:46:34;;;;;;;;;;;;;;;23.01;24.63;101758.16;5042287;28;19924;-79
2024/01/21 11:49:01;;;;;;;;;;;;;;;23.06;24.88;101763.91;5041209;28;19917;-77
2024/01/21 11:51:26;;;;;;;;;;;;;;;23.06;24.84;101768.47;5039882;28;19917;-77
2024/01/21 11:53:53;;;;;;;;;;;;;;;23.07;24.78;101762.06;5037587;28;19933;-79
2024/01/21 11:56:18;;;;;;;;;;;;;;;23.09;24.69;101763.56;5035878;28;19917;-77
2024/01/21 11:58:43;;;;;;;;;;;;;;;23.12;24.74;101759.66;5040425;28;19913;-76
2024/01/21 12:01:09;;;;;;;;;;;;;;;23.14;24.86;101761.16;5042779;28;19924;-79
2024/01/21 12:03:34;;;;;;;;;;;;;;;23.15;24.74;101775.56;5036639;28;19914;-76
2024/01/21 12:05:59;;;;;;;;;;;;;;;23.15;24.81;101779.16;5033299;28;19917;-77
2024/01/21 12:08:24;;;;;;;;;;;;;;;23.15;24.95;101776.44;5041073;28;20012;-78
2024/01/21 12:10:49;;;;;;;;;;;;;;;23.16;25.11;101780.84;5042089;28;19913;-78
2024/01/21 12:13:15;;;;;;;;;;;;;;;23.18;24.83;101780.66;5044813;28;19921;-79
2024/01/21 12:15:40;;;;;;;;;;;;;;;23.18;24.73;101761.66;5040624;28;19916;-78
2024/01/21 12:18:05;;;;;;;;;;;;;;;23.18;25.11;101754.34;5035443;28;19913;-78
2024/01/21 12:20:30;;;;;;;;;;;;;;;23.20;24.90;101770.47;5035564;28;19920;-82
2024/01/21 12:22:56;;;;;;;;;;;;;;;23.22;24.90;101757.56;5038649;28;19952;-79
2024/01/21 12:25:22;;;;;;;;;;;;;;;23.22;24.99;101757.56;5042701;28;20017;-77